Time;durP1;ratioP1;P1;durP2;ratioP2;P2;SDS_P1;SDS_P2;PMS_P1;PMS_P2;Temp;Humidity;BMP_temperature;BMP_pressure;BME280_temperature;BME280_humidity;BME280_pressure;Samples;Min_cycle;Max_cycle;Signal;HPM_P1;HPM_P2
2021/01/04 00:01:25;;;;;;;37.13;20.00;;;4.20;58.40;;;;;;6160578;23;20576;-83
2021/01/04 00:04:04;;;;;;;36.07;19.30;;;4.10;58.20;;;;;;6160369;23;20317;-83
2021/01/04 00:06:40;;;;;;;33.40;18.63;;;4.10;58.40;;;;;;6160055;23;20501;-83
2021/01/04 00:09:31;;;;;;;35.53;17.73;;;4.10;58.20;;;;;;6160073;23;20012;-83
2021/01/04 00:12:11;;;;;;;37.10;18.73;;;4.00;58.10;;;;;;6142713;23;20009;-83
2021/01/04 00:15:00;;;;;;;36.80;19.50;;;4.00;58.30;;;;;;6184686;23;20001;-83
2021/01/04 00:17:41;;;;;;;34.87;19.10;;;3.90;58.30;;;;;;6159291;23;20005;-82
2021/01/04 00:20:31;;;;;;;36.70;19.10;;;3.90;58.40;;;;;;6159215;23;20043;-82
2021/01/04 00:23:13;;;;;;;36.30;19.13;;;3.90;58.30;;;;;;6159608;23;20400;-83
2021/01/04 00:25:47;;;;;;;35.13;18.73;;;3.90;58.40;;;;;;6187487;23;20004;-83
2021/01/04 00:28:18;;;;;;;34.80;17.40;;;3.90;58.40;;;;;;6160178;23;20009;-83
2021/01/04 00:30:57;;;;;;;36.03;18.57;;;3.90;58.20;;;;;;6158673;23;20008;-83
2021/01/04 00:33:23;;;;;;;32.43;17.47;;;3.90;58.20;;;;;;6160220;23;20056;-83
2021/01/04 00:35:57;;;;;;;35.03;18.73;;;3.90;58.10;;;;;;6160193;23;20483;-83
2021/01/04 00:38:34;;;;;;;38.63;19.57;;;3.90;58.30;;;;;;6161510;23;20025;-83
2021/01/04 00:41:28;;;;;;;40.03;19.60;;;3.90;58.40;;;;;;6164705;23;20043;-83
2021/01/04 00:43:56;;;;;;;37.07;19.30;;;3.80;58.40;;;;;;6191670;23;20020;-83
2021/01/04 00:46:36;;;;;;;32.43;18.47;;;3.80;58.50;;;;;;6190462;23;20032;-83
2021/01/04 00:49:10;;;;;;;34.33;18.40;;;3.90;58.40;;;;;;6191584;23;20108;-84
2021/01/04 00:51:42;;;;;;;35.50;18.80;;;3.90;58.20;;;;;;6190863;23;20091;-83
2021/01/04 00:54:26;;;;;;;38.97;20.33;;;3.90;58.20;;;;;;6191491;23;20034;-84
2021/01/04 00:57:20;;;;;;;33.00;18.27;;;3.80;57.90;;;;;;6190851;23;20001;-83
2021/01/04 01:00:13;;;;;;;31.20;16.90;;;3.70;57.80;;;;;;6177577;23;20019;-83
2021/01/04 01:02:53;;;;;;;;;;;3.70;58.00;;;;;;6191367;23;20427;-83
2021/01/04 01:05:31;;;;;;;34.30;18.20;;;3.80;58.50;;;;;;6191220;23;20274;-83
2021/01/04 01:08:12;;;;;;;34.53;17.33;;;3.80;58.20;;;;;;6217419;23;20371;-83
2021/01/04 01:10:47;;;;;;;35.37;18.70;;;3.80;58.20;;;;;;6191105;23;20011;-83
2021/01/04 01:13:46;;;;;;;35.50;18.13;;;3.80;58.20;;;;;;6191000;23;20004;-82
2021/01/04 01:16:35;;;;;;;30.93;16.40;;;3.80;58.10;;;;;;6190153;23;20079;-83
2021/01/04 01:19:26;;;;;;;33.67;18.23;;;3.80;58.10;;;;;;6217776;23;20340;-83
2021/01/04 01:21:52;;;;;;;33.93;18.33;;;3.80;58.10;;;;;;6191196;23;20016;-83
2021/01/04 01:24:18;;;;;;;32.97;18.50;;;3.80;58.20;;;;;;6216195;23;20001;-83
2021/01/04 01:27:09;;;;;;;33.10;18.47;;;3.80;58.20;;;;;;6191301;23;20015;-83
2021/01/04 01:29:59;;;;;;;33.47;18.67;;;3.80;58.40;;;;;;6190711;23;20011;-83
2021/01/04 01:32:40;;;;;;;37.97;20.30;;;3.80;58.10;;;;;;6190987;23;20005;-83
2021/01/04 01:35:33;;;;;;;38.43;19.93;;;3.70;58.00;;;;;;6188274;23;20035;-83
2021/01/04 01:38:15;;;;;;;35.03;18.03;;;3.80;58.10;;;;;;6191100;23;20001;-83
2021/01/04 01:40:40;;;;;;;38.00;18.80;;;3.80;58.00;;;;;;6190338;23;20007;-83
2021/01/04 01:43:09;;;;;;;32.20;16.83;;;3.70;57.90;;;;;;6161169;23;20021;-83
2021/01/04 01:45:41;;;;;;;30.47;16.87;;;3.70;58.00;;;;;;6160396;23;20001;-83
2021/01/04 01:48:45;;;;;;;31.38;17.15;;;3.70;58.00;;;;;;6188372;23;20005;-83
2021/01/04 01:51:48;;;;;;;30.95;15.90;;;3.70;58.10;;;;;;6160512;23;20005;-83
2021/01/04 01:54:20;;;;;;;32.15;17.02;;;3.70;58.00;;;;;;6160546;23;20099;-83
2021/01/04 01:56:51;;;;;;;34.90;18.47;;;3.70;58.10;;;;;;6160504;23;20012;-83
2021/01/04 01:59:30;;;;;;;30.73;16.80;;;3.70;58.10;;;;;;6160164;23;20017;-83
2021/01/04 02:02:06;;;;;;;32.60;17.67;;;3.60;58.10;;;;;;6161289;23;20005;-83
2021/01/04 02:04:53;;;;;;;30.33;15.80;;;3.70;58.20;;;;;;6160682;23;20012;-84
2021/01/04 02:07:37;;;;;;;35.83;17.73;;;3.80;58.50;;;;;;6161258;23;20009;-84
2021/01/04 02:10:15;;;;;;;34.53;17.27;;;3.80;57.90;;;;;;6183688;23;20001;-84
2021/01/04 02:13:10;;;;;;;30.73;16.50;;;3.90;57.70;;;;;;6160711;23;20051;-84
2021/01/04 02:15:48;;;;;;;29.33;16.00;;;3.90;57.80;;;;;;6161321;23;20009;-84
2021/01/04 02:18:49;;;;;;;34.47;16.73;;;3.80;57.40;;;;;;6161120;23;20075;-84
2021/01/04 02:22:05;;;;;;;32.50;17.07;;;3.80;57.60;;;;;;6186842;23;19997;-84
2021/01/04 02:24:30;;;;;;;35.83;17.87;;;3.80;57.50;;;;;;6160452;23;20013;-84
2021/01/04 02:27:16;;;;;;;31.37;15.90;;;3.90;57.80;;;;;;6186318;23;20001;-84
2021/01/04 02:29:42;;;;;;;33.27;17.20;;;3.80;57.50;;;;;;6159767;23;20036;-83
2021/01/04 02:32:09;;;;;;;30.70;16.27;;;3.80;57.60;;;;;;6159866;23;20001;-83
2021/01/04 02:34:44;;;;;;;30.00;16.07;;;3.80;57.60;;;;;;6159824;23;20004;-83
2021/01/04 02:37:12;;;;;;;31.43;15.53;;;3.90;57.70;;;;;;6158453;23;20016;-83
2021/01/04 02:39:52;;;;;;;31.67;17.13;;;3.80;57.40;;;;;;6159885;23;20104;-83
2021/01/04 02:42:25;;;;;;;26.97;15.00;;;3.80;57.30;;;;;;6160490;23;20017;-83
2021/01/04 02:44:51;;;;;;;33.20;17.57;;;3.80;57.60;;;;;;6160705;23;20086;-83
2021/01/04 02:47:49;;;;;;;28.83;16.20;;;3.80;57.40;;;;;;6160409;23;20131;-83
2021/01/04 02:50:28;;;;;;;31.80;16.87;;;3.80;57.40;;;;;;6126915;23;20012;-83
2021/01/04 02:53:34;;;;;;;31.23;17.27;;;3.80;57.50;;;;;;6187162;23;20490;-83
2021/01/04 02:56:39;;;;;;;36.07;17.37;;;3.80;57.60;;;;;;6159674;23;20012;-83
2021/01/04 02:59:48;;;;;;;34.60;18.47;;;3.80;57.50;;;;;;6159834;23;20010;-83
2021/01/04 03:02:34;;;;;;;31.40;15.87;;;3.80;57.50;;;;;;6159202;23;20660;-83
2021/01/04 03:05:00;;;;;;;29.87;15.93;;;3.80;57.60;;;;;;6159307;23;20443;-83
2021/01/04 03:07:28;;;;;;;30.27;15.87;;;3.80;57.90;;;;;;6161040;23;20029;-83
2021/01/04 03:10:00;;;;;;;31.53;16.73;;;3.90;57.60;;;;;;6160321;23;20019;-83
2021/01/04 03:12:54;;;;;;;33.70;17.10;;;3.80;57.30;;;;;;6186735;23;20005;-83
2021/01/04 03:15:38;;;;;;;30.33;16.83;;;3.80;57.60;;;;;;6160339;23;20064;-84
2021/01/04 03:18:17;;;;;;;30.17;17.27;;;3.70;57.30;;;;;;6160538;23;20028;-84
2021/01/04 03:20:43;;;;;;;31.60;16.00;;;3.70;57.30;;;;;;6160814;23;20004;-84
2021/01/04 03:23:09;;;;;;;33.67;17.87;;;3.70;57.50;;;;;;6159529;23;20004;-84
2021/01/04 03:25:44;;;;;;;29.13;16.50;;;3.70;57.60;;;;;;6160802;23;20021;-84
2021/01/04 03:28:23;;;;;;;35.13;17.47;;;3.70;57.40;;;;;;6160576;23;20005;-83
2021/01/04 03:30:49;;;;;;;32.40;16.37;;;3.80;57.20;;;;;;6160503;23;20009;-83
2021/01/04 03:33:15;;;;;;;27.80;15.37;;;3.70;57.30;;;;;;6188562;23;20012;-83
2021/01/04 03:35:41;;;;;;;30.13;16.53;;;3.60;57.50;;;;;;6160378;23;20016;-83
2021/01/04 03:38:07;;;;;;;35.63;18.63;;;3.70;57.60;;;;;;6160688;23;20009;-83
2021/01/04 03:40:33;;;;;;;30.77;16.83;;;3.70;57.60;;;;;;6160259;23;20128;-83
2021/01/04 03:42:58;;;;;;;29.10;15.77;;;3.70;57.40;;;;;;6160661;23;20076;-83
2021/01/04 03:45:24;;;;;;;29.10;17.07;;;3.70;57.10;;;;;;6160381;23;20021;-83
2021/01/04 03:47:50;;;;;;;33.13;16.93;;;3.70;57.20;;;;;;6161139;23;20012;-83
2021/01/04 03:50:16;;;;;;;28.33;16.43;;;3.70;57.30;;;;;;6160448;23;20062;-82
2021/01/04 03:52:44;;;;;;;36.73;18.43;;;3.70;57.20;;;;;;6160839;23;20009;-83
2021/01/04 03:55:11;;;;;;;29.97;16.57;;;3.60;57.10;;;;;;6187269;23;20001;-83
2021/01/04 03:57:37;;;;;;;31.73;17.03;;;3.70;57.50;;;;;;6160486;23;20083;-83
2021/01/04 04:00:07;;;;;;;32.17;16.83;;;3.70;57.40;;;;;;6159524;23;20020;-83
2021/01/04 04:02:33;;;;;;;29.60;16.93;;;3.70;57.10;;;;;;6160617;23;20039;-83
2021/01/04 04:04:58;;;;;;;33.10;17.57;;;3.70;57.10;;;;;;6159877;23;20001;-83
2021/01/04 04:07:24;;;;;;;30.73;16.10;;;3.70;57.00;;;;;;6159041;23;20009;-83
2021/01/04 04:09:50;;;;;;;32.97;16.70;;;3.60;57.00;;;;;;6160447;23;20009;-83
2021/01/04 04:12:15;;;;;;;24.23;13.23;;;3.70;57.20;;;;;;6161933;23;20009;-83
2021/01/04 04:14:46;;;;;;;33.00;16.43;;;3.70;57.00;;;;;;6163028;23;20071;-83
2021/01/04 04:17:12;;;;;;;31.63;15.90;;;3.80;56.80;;;;;;6161860;23;20255;-83
2021/01/04 04:19:38;;;;;;;32.23;16.17;;;3.80;56.60;;;;;;6162747;23;20139;-83
2021/01/04 04:22:03;;;;;;;30.30;16.33;;;3.80;56.90;;;;;;6188775;23;20005;-83
2021/01/04 04:24:29;;;;;;;31.33;16.53;;;3.80;56.80;;;;;;6188718;23;20004;-83
2021/01/04 04:26:55;;;;;;;31.30;16.87;;;3.70;56.40;;;;;;6188516;23;20012;-83
2021/01/04 04:29:20;;;;;;;35.40;16.70;;;3.60;56.80;;;;;;6162144;23;20009;-83
2021/01/04 04:31:48;;;;;;;32.67;17.60;;;3.60;56.90;;;;;;6161595;23;20019;-83
2021/01/04 04:34:15;;;;;;;32.87;17.23;;;3.60;57.00;;;;;;6187248;23;20005;-83
2021/01/04 04:36:43;;;;;;;32.43;16.93;;;3.60;56.90;;;;;;6160338;23;20064;-83
2021/01/04 04:39:11;;;;;;;29.97;15.67;;;3.50;56.70;;;;;;6187096;23;20028;-83
2021/01/04 04:41:44;;;;;;;30.10;16.33;;;3.60;57.20;;;;;;6159849;23;20388;-83
2021/01/04 04:44:34;;;;;;;33.67;18.27;;;3.60;57.10;;;;;;6185366;23;20012;-83
2021/01/04 04:47:19;;;;;;;35.40;18.43;;;3.60;57.00;;;;;;6161061;23;20012;-83
2021/01/04 04:49:57;;;;;;;30.40;17.37;;;3.50;57.20;;;;;;6160760;23;20016;-83
2021/01/04 04:52:38;;;;;;;30.80;16.27;;;3.50;57.40;;;;;;6160847;23;20459;-83
2021/01/04 04:55:10;;;;;;;30.47;17.23;;;3.50;57.20;;;;;;6160436;23;20036;-83
2021/01/04 04:57:43;;;;;;;29.65;15.43;;;3.50;57.40;;;;;;6161393;23;20001;-83
2021/01/04 05:00:29;;;;;;;29.60;15.93;;;3.60;57.40;;;;;;6160647;23;20005;-82
2021/01/04 05:03:14;;;;;;;29.63;16.37;;;3.60;57.20;;;;;;6160355;23;20424;-82
2021/01/04 05:05:53;;;;;;;36.80;18.27;;;3.60;56.90;;;;;;6161339;23;20060;-82
2021/01/04 05:08:48;;;;;;;32.40;17.63;;;3.50;57.00;;;;;;6161654;23;20063;-82
2021/01/04 05:11:20;;;;;;;31.67;16.60;;;3.50;57.50;;;;;;6187723;23;20039;-82
2021/01/04 05:13:50;;;;;;;29.75;16.67;;;3.50;57.70;;;;;;6162055;23;20007;-82
2021/01/04 05:16:36;;;;;;;33.77;17.10;;;3.60;57.70;;;;;;6161640;23;20005;-82
2021/01/04 05:19:31;;;;;;;31.10;15.53;;;3.50;57.50;;;;;;6188240;23;20015;-83
2021/01/04 05:22:09;;;;;;;26.43;15.33;;;3.50;57.90;;;;;;6164646;23;20024;-83
2021/01/04 05:24:58;;;;;;;31.27;16.60;;;3.50;58.00;;;;;;6190099;23;20429;-83
2021/01/04 05:28:00;;;;;;;31.57;15.23;;;3.70;58.10;;;;;;6161980;23;20043;-83
2021/01/04 05:30:46;;;;;;;32.97;16.27;;;3.70;58.00;;;;;;6015505;23;20011;-83
2021/01/04 05:33:34;;;;;;;31.00;15.07;;;3.80;58.10;;;;;;6151647;23;20009;-83
2021/01/04 05:36:32;;;;;;;30.07;14.73;;;3.80;58.00;;;;;;6160639;23;20013;-83
2021/01/04 05:39:16;;;;;;;32.93;16.13;;;3.80;57.80;;;;;;6187517;23;20004;-84
2021/01/04 05:42:24;;;;;;;34.53;18.13;;;3.80;58.00;;;;;;6161820;23;20017;-83
2021/01/04 05:44:55;;;;;;;28.50;14.83;;;3.70;58.20;;;;;;6160485;23;20013;-83
2021/01/04 05:47:24;;;;;;;29.57;16.53;;;3.80;58.20;;;;;;6161394;23;20459;-83
2021/01/04 05:50:20;;;;;;;26.17;14.77;;;3.80;58.20;;;;;;6160764;23;20095;-82
2021/01/04 05:52:47;;;;;;;26.33;14.50;;;3.90;58.00;;;;;;6160364;23;20020;-82
2021/01/04 05:55:15;;;;;;;39.03;16.97;;;4.00;57.80;;;;;;6159654;23;20484;-83
2021/01/04 05:57:49;;;;;;;36.23;18.23;;;4.00;57.20;;;;;;6160588;23;20012;-83
2021/01/04 06:00:32;;;;;;;32.93;16.07;;;4.00;57.20;;;;;;6159285;23;20073;-83
2021/01/04 06:03:24;;;;;;;40.50;17.90;;;3.80;57.30;;;;;;6185943;23;20004;-83
2021/01/04 06:05:52;;;;;;;29.30;15.57;;;3.80;57.30;;;;;;6178963;23;20005;-82
2021/01/04 06:08:22;;;;;;;30.87;16.93;;;3.80;57.40;;;;;;6157899;23;20456;-82
2021/01/04 06:10:49;;;;;;;31.10;15.90;;;3.70;57.30;;;;;;6156770;23;20005;-82
2021/01/04 06:13:18;;;;;;;36.77;17.77;;;3.70;57.60;;;;;;6158684;23;20009;-82
2021/01/04 06:15:44;;;;;;;34.20;17.17;;;3.80;57.60;;;;;;6186359;23;20096;-82
2021/01/04 06:18:18;;;;;;;27.97;15.33;;;3.80;57.20;;;;;;6159943;23;20009;-82
2021/01/04 06:20:43;;;;;;;31.77;16.10;;;3.70;57.40;;;;;;6185759;23;20058;-82
2021/01/04 06:23:13;;;;;;;31.07;15.87;;;3.60;57.00;;;;;;6160236;23;20497;-82
2021/01/04 06:25:38;;;;;;;33.23;16.77;;;3.60;57.30;;;;;;6158153;23;20012;-82
2021/01/04 06:28:05;;;;;;;30.67;17.13;;;3.60;57.60;;;;;;6159847;23;20333;-82
2021/01/04 06:30:44;;;;;;;32.13;15.80;;;3.60;57.70;;;;;;6160177;23;20059;-81
2021/01/04 06:33:14;;;;;;;31.93;17.13;;;3.70;57.70;;;;;;6159128;23;20333;-82
2021/01/04 06:35:40;;;;;;;31.90;17.50;;;3.80;57.30;;;;;;6185910;23;20027;-82
2021/01/04 06:38:29;;;;;;;31.97;17.37;;;3.70;57.40;;;;;;6185705;23;20008;-82
2021/01/04 06:40:56;;;;;;;35.23;17.93;;;3.40;56.60;;;;;;6160409;23;20001;-82
2021/01/04 06:43:28;;;;;;;29.10;16.27;;;3.20;57.20;;;;;;6188722;23;20401;-82
2021/01/04 06:46:12;;;;;;;33.63;17.20;;;3.10;57.60;;;;;;6187956;23;20011;-81
2021/01/04 06:49:03;;;;;;;32.07;15.87;;;3.20;58.20;;;;;;6188534;23;20336;-82
2021/01/04 06:52:02;;;;;;;31.60;15.63;;;3.30;57.70;;;;;;6215725;23;20432;-82
2021/01/04 06:54:37;;;;;;;31.17;16.27;;;3.30;57.90;;;;;;6188981;23;20008;-82
2021/01/04 06:57:57;;;;;;;33.63;16.87;;;3.30;57.70;;;;;;6187683;23;20055;-82
2021/01/04 07:00:29;;;;;;;27.20;14.17;;;3.20;57.60;;;;;;6040920;23;20087;-82
2021/01/04 07:03:29;;;;;;;33.80;15.87;;;3.30;57.90;;;;;;6182500;23;20048;-82
2021/01/04 07:06:07;;;;;;;33.47;18.03;;;3.30;57.30;;;;;;6188796;23;20015;-82
2021/01/04 07:09:00;;;;;;;28.83;15.87;;;3.30;57.30;;;;;;6188036;23;20016;-81
2021/01/04 07:11:35;;;;;;;29.70;16.37;;;3.30;57.40;;;;;;6190244;23;20009;-81
2021/01/04 07:14:38;;;;;;;33.50;17.07;;;3.40;57.40;;;;;;6189085;23;20001;-81
2021/01/04 07:17:34;;;;;;;33.90;18.13;;;3.30;56.70;;;;;;6216107;23;20009;-82
2021/01/04 07:20:02;;;;;;;29.07;15.70;;;3.30;57.00;;;;;;6188123;23;20009;-82
2021/01/04 07:23:03;;;;;;;32.67;15.90;;;3.30;57.10;;;;;;6188902;23;20373;-82
2021/01/04 07:25:59;;;;;;;30.77;16.37;;;3.30;57.00;;;;;;6188003;23;20000;-82
2021/01/04 07:28:47;;;;;;;33.67;17.07;;;3.30;57.20;;;;;;6189879;23;20828;-82
2021/01/04 07:31:52;;;;;;;32.77;18.10;;;3.30;57.20;;;;;;6188844;23;20016;-82
2021/01/04 07:34:39;;;;;;;32.03;17.10;;;3.20;57.10;;;;;;6168457;23;20005;-82
2021/01/04 07:37:07;;;;;;;35.50;17.77;;;3.20;57.20;;;;;;6189860;23;20447;-82
2021/01/04 07:39:45;;;;;;;31.63;15.30;;;3.20;56.90;;;;;;6215370;23;20055;-82
2021/01/04 07:42:33;;;;;;;29.10;16.27;;;3.20;57.40;;;;;;6171890;23;20013;-82
2021/01/04 07:45:11;;;;;;;40.43;18.47;;;3.30;57.00;;;;;;6157586;23;20005;-82
2021/01/04 07:48:16;;;;;;;38.90;18.50;;;3.10;57.10;;;;;;6158819;23;20035;-82
2021/01/04 07:50:51;;;;;;;39.10;17.77;;;3.10;57.20;;;;;;6104495;23;20005;-83
2021/01/04 07:53:51;;;;;;;36.77;16.83;;;3.00;57.00;;;;;;6161092;23;20008;-83
2021/01/04 07:56:36;;;;;;;32.80;16.57;;;3.10;57.60;;;;;;6037036;23;20056;-83
2021/01/04 07:59:20;;;;;;;39.17;19.17;;;3.10;56.90;;;;;;6187221;23;20469;-84
2021/01/04 08:02:07;;;;;;;33.40;17.20;;;2.80;57.10;;;;;;6160515;23;20055;-83
2021/01/04 08:04:56;;;;;;;33.50;17.67;;;3.00;57.80;;;;;;6160305;23;20092;-83
2021/01/04 08:07:36;;;;;;;40.50;19.37;;;3.00;57.20;;;;;;6140027;23;20020;-83
2021/01/04 08:10:43;;;;;;;35.87;18.30;;;2.90;57.60;;;;;;6158961;23;20028;-83
2021/01/04 08:13:28;;;;;;;40.33;19.20;;;2.90;57.70;;;;;;6160861;23;20039;-83
2021/01/04 08:16:01;;;;;;;38.27;18.50;;;3.00;58.00;;;;;;6161215;23;20005;-83
2021/01/04 08:18:31;;;;;;;40.53;20.13;;;3.10;58.20;;;;;;6159440;23;20055;-83
2021/01/04 08:21:16;;;;;;;33.63;17.93;;;3.10;57.40;;;;;;6159846;23;20075;-83
2021/01/04 08:24:03;;;;;;;37.40;18.17;;;2.90;57.30;;;;;;6160348;23;20425;-83
2021/01/04 08:27:00;;;;;;;37.30;19.07;;;2.80;57.70;;;;;;6160084;23;20096;-83
2021/01/04 08:29:57;;;;;;;34.10;19.10;;;2.80;58.00;;;;;;6159857;23;20007;-83
2021/01/04 08:32:43;;;;;;;32.73;17.53;;;3.00;58.20;;;;;;6161193;23;20005;-83
2021/01/04 08:35:30;;;;;;;39.40;19.50;;;3.20;58.10;;;;;;6186476;23;20096;-83
2021/01/04 08:38:15;;;;;;;34.90;18.03;;;3.20;57.40;;;;;;6159772;23;20064;-83
2021/01/04 08:40:59;;;;;;;34.00;18.97;;;3.20;57.50;;;;;;6158939;23;20483;-83
2021/01/04 08:43:37;;;;;;;36.17;17.90;;;3.20;57.20;;;;;;6160799;23;20451;-83
2021/01/04 08:46:21;;;;;;;35.00;16.67;;;3.20;57.20;;;;;;6160770;23;20005;-84
2021/01/04 08:49:08;;;;;;;35.03;17.60;;;3.10;57.10;;;;;;6158746;23;20009;-83
2021/01/04 08:51:39;;;;;;;38.40;18.70;;;3.20;57.40;;;;;;6115303;23;20016;-83
2021/01/04 08:54:11;;;;;;;39.23;19.30;;;3.20;57.40;;;;;;6157237;23;20009;-83
2021/01/04 08:56:47;;;;;;;37.00;18.63;;;3.20;57.30;;;;;;6184692;23;20012;-83
2021/01/04 08:59:16;;;;;;;32.10;17.13;;;3.20;57.20;;;;;;6188308;23;20001;-83
2021/01/04 09:02:14;;;;;;;33.53;19.00;;;3.30;57.30;;;;;;6187678;23;20008;-83
2021/01/04 09:04:41;;;;;;;34.63;17.77;;;3.30;57.30;;;;;;6187868;23;20751;-83
2021/01/04 09:07:10;;;;;;;38.53;19.60;;;3.30;57.10;;;;;;6162340;23;20001;-83
2021/01/04 09:09:53;;;;;;;43.40;20.27;;;3.30;57.20;;;;;;6162752;23;20017;-83
2021/01/04 09:12:37;;;;;;;43.47;20.57;;;3.40;57.20;;;;;;6161661;23;20013;-83
2021/01/04 09:15:12;;;;;;;39.27;20.10;;;3.40;57.10;;;;;;6160912;23;20009;-83
2021/01/04 09:17:59;;;;;;;37.13;19.43;;;3.50;57.00;;;;;;6188731;23;20418;-83
2021/01/04 09:20:53;;;;;;;45.47;21.10;;;3.40;57.00;;;;;;6186136;23;20001;-83
2021/01/04 09:23:19;;;;;;;38.07;19.73;;;3.40;57.40;;;;;;6178414;23;20012;-82
2021/01/04 09:25:51;;;;;;;33.57;17.77;;;3.30;57.50;;;;;;6161454;23;20060;-83
2021/01/04 09:28:19;;;;;;;;;;;3.30;57.60;;;;;;6161241;23;20192;-83
2021/01/04 09:30:45;;;;;;;38.73;20.93;;;3.40;57.60;;;;;;6161992;23;19904;-83
2021/01/04 09:33:19;;;;;;;44.33;22.23;;;3.40;57.60;;;;;;6161401;23;20005;-83
2021/01/04 09:35:46;;;;;;;45.43;21.27;;;3.40;57.50;;;;;;6159172;23;20036;-83
2021/01/04 09:38:24;;;;;;;56.97;23.07;;;3.50;57.50;;;;;;6161675;23;20020;-83
2021/01/04 09:40:53;;;;;;;49.63;23.83;;;3.50;57.60;;;;;;6189599;23;20024;-83
2021/01/04 09:43:27;;;;;;;48.87;22.07;;;3.60;57.70;;;;;;6190981;23;20016;-84
2021/01/04 09:46:06;;;;;;;37.47;21.07;;;3.60;57.60;;;;;;6192181;23;20005;-83
2021/01/04 09:48:48;;;;;;;41.70;20.70;;;3.60;57.60;;;;;;6191287;23;20036;-83
2021/01/04 09:51:18;;;;;;;51.25;24.65;;;3.60;57.90;;;;;;6190358;23;20013;-83
2021/01/04 09:53:51;;;;;;;41.63;21.67;;;3.80;57.90;;;;;;6192390;23;20008;-83
2021/01/04 09:56:18;;;;;;;40.30;21.67;;;3.70;57.80;;;;;;6192366;23;20000;-83
2021/01/04 09:58:44;;;;;;;39.20;20.90;;;3.80;58.10;;;;;;6191674;23;20471;-83
2021/01/04 10:01:16;;;;;;;42.00;22.23;;;3.80;58.00;;;;;;6218016;23;20070;-83
2021/01/04 10:03:57;;;;;;;44.22;23.08;;;3.80;58.20;;;;;;6190286;23;20055;-83
2021/01/04 10:06:24;;;;;;;55.20;22.20;;;3.70;58.20;;;;;;6189712;23;20001;-83
2021/01/04 10:08:51;;;;;;;38.00;21.17;;;3.70;58.30;;;;;;6191501;23;20092;-83
2021/01/04 10:11:21;;;;;;;43.17;21.53;;;3.70;58.50;;;;;;6191651;23;20001;-83
2021/01/04 10:13:47;;;;;;;38.90;19.43;;;3.70;58.70;;;;;;6218626;23;20095;-82
2021/01/04 10:16:25;;;;;;;37.87;21.53;;;3.80;58.70;;;;;;6192814;23;20005;-82
2021/01/04 10:19:16;;;;;;;40.47;21.53;;;3.90;58.80;;;;;;6218333;23;20046;-82
2021/01/04 10:22:03;;;;;;;46.70;21.83;;;3.90;58.60;;;;;;6134860;23;20007;-82
2021/01/04 10:24:39;;;;;;;41.10;21.80;;;4.00;58.50;;;;;;6218653;23;20001;-81
2021/01/04 10:27:06;;;;;;;42.30;22.27;;;4.00;58.50;;;;;;6192343;23;20016;-82
2021/01/04 10:29:33;;;;;;;39.23;21.30;;;4.10;58.50;;;;;;6220110;23;20000;-83
2021/01/04 10:32:13;;;;;;;45.03;23.00;;;4.10;58.50;;;;;;6193710;23;20009;-83
2021/01/04 10:34:47;;;;;;;47.47;21.53;;;4.20;58.40;;;;;;6191905;23;20005;-83
2021/01/04 10:37:35;;;;;;;40.50;20.93;;;4.20;58.20;;;;;;6193269;23;20074;-82
2021/01/04 10:40:05;;;;;;;42.30;20.80;;;4.20;58.10;;;;;;6193815;23;20063;-83
2021/01/04 10:42:31;;;;;;;50.00;20.77;;;4.30;58.10;;;;;;6170231;23;20139;-83
2021/01/04 10:45:08;;;;;;;43.53;21.70;;;4.40;58.10;;;;;;6158336;23;20005;-83
2021/01/04 10:47:59;;;;;;;45.40;21.50;;;4.40;57.80;;;;;;6165210;23;20005;-82
2021/01/04 10:50:40;;;;;;;40.00;20.97;;;4.30;57.70;;;;;;6190135;23;20001;-81
2021/01/04 10:53:13;;;;;;;41.07;21.50;;;4.30;57.80;;;;;;6164835;23;20013;-82
2021/01/04 10:55:56;;;;;;;42.70;21.30;;;4.30;57.80;;;;;;6166032;23;20001;-83
2021/01/04 10:58:29;;;;;;;44.97;22.47;;;4.30;57.70;;;;;;6193020;23;20008;-82
2021/01/04 11:01:03;;;;;;;42.60;22.80;;;4.30;57.60;;;;;;6163351;23;20247;-83
2021/01/04 11:04:04;;;;;;;41.33;22.93;;;4.30;57.70;;;;;;6161581;23;20008;-82
2021/01/04 11:06:33;;;;;;;47.10;23.33;;;4.40;57.60;;;;;;6188279;23;20416;-82
2021/01/04 11:09:09;;;;;;;43.80;20.93;;;4.30;57.40;;;;;;6161248;23;20009;-82
2021/01/04 11:11:42;;;;;;;43.13;22.07;;;4.30;57.40;;;;;;6159554;23;20009;-82
2021/01/04 11:14:35;;;;;;;44.57;22.03;;;4.30;57.40;;;;;;6185934;23;20001;-83
2021/01/04 11:17:09;;;;;;;41.38;21.92;;;4.40;57.30;;;;;;6155629;23;20464;-83
2021/01/04 11:19:37;;;;;;;39.10;21.60;;;4.50;57.20;;;;;;6162583;23;20009;-82
2021/01/04 11:22:22;;;;;;;39.70;20.10;;;4.40;57.10;;;;;;6161099;23;20488;-82
2021/01/04 11:24:48;;;;;;;42.90;20.67;;;4.50;57.10;;;;;;6160876;23;20001;-82
2021/01/04 11:27:15;;;;;;;36.60;20.70;;;4.60;57.10;;;;;;6161462;23;20436;-82
2021/01/04 11:29:42;;;;;;;41.63;20.70;;;4.70;57.00;;;;;;6161547;23;20142;-82
2021/01/04 11:32:09;;;;;;;39.97;20.70;;;4.70;56.80;;;;;;6188909;23;20152;-83
2021/01/04 11:34:35;;;;;;;36.63;19.63;;;4.80;56.70;;;;;;6161221;23;20005;-82
2021/01/04 11:37:01;;;;;;;41.20;19.23;;;5.00;56.60;;;;;;6161301;23;20008;-82
2021/01/04 11:39:27;;;;;;;41.17;20.53;;;5.00;56.30;;;;;;6160270;23;20011;-82
2021/01/04 11:41:53;;;;;;;40.53;21.17;;;5.10;56.30;;;;;;6201620;23;20083;-82
2021/01/04 11:45:16;;;;;;;40.70;20.63;;;5.10;56.10;;;;;;6190860;23;20884;-83
2021/01/04 11:47:42;;;;;;;38.35;21.15;;;5.10;55.90;;;;;;6148805;23;20455;-82
2021/01/04 11:50:09;;;;;;;39.50;22.07;;;5.10;56.00;;;;;;6190917;23;20004;-82
2021/01/04 11:52:36;;;;;;;40.70;19.10;;;5.20;56.00;;;;;;6190677;23;20009;-83
2021/01/04 11:55:04;;;;;;;39.87;22.10;;;5.20;55.90;;;;;;6190776;23;20008;-83
2021/01/04 11:57:29;;;;;;;44.63;21.00;;;5.30;55.80;;;;;;6189582;23;20008;-84
2021/01/04 11:59:55;;;;;;;34.13;18.90;;;5.30;55.70;;;;;;6191222;23;20062;-83
2021/01/04 12:02:21;;;;;;;41.43;19.63;;;5.30;55.70;;;;;;6190725;23;20008;-83
2021/01/04 12:04:47;;;;;;;35.47;20.30;;;5.50;55.80;;;;;;6190991;23;20424;-83
2021/01/04 12:07:14;;;;;;;34.83;18.63;;;5.50;55.50;;;;;;6190448;23;20083;-83
2021/01/04 12:09:46;;;;;;;37.07;20.57;;;5.40;55.40;;;;;;6190708;23;20095;-83
2021/01/04 12:12:12;;;;;;;37.07;20.13;;;5.40;55.40;;;;;;6190478;23;20004;-83
2021/01/04 12:14:40;;;;;;;38.47;20.40;;;5.30;55.40;;;;;;6189596;23;20008;-83
2021/01/04 12:17:09;;;;;;;37.07;19.93;;;5.30;55.20;;;;;;6215543;23;20009;-83
2021/01/04 12:19:35;;;;;;;36.73;19.13;;;5.20;55.20;;;;;;6217586;23;20146;-83
2021/01/04 12:22:23;;;;;;;41.40;19.33;;;5.20;55.20;;;;;;6217971;23;20001;-83
2021/01/04 12:24:49;;;;;;;34.80;18.97;;;5.10;55.20;;;;;;6167698;23;20005;-83
2021/01/04 12:27:17;;;;;;;39.03;19.20;;;5.10;55.20;;;;;;6189669;23;20043;-83
2021/01/04 12:29:48;;;;;;;39.20;20.50;;;5.20;55.20;;;;;;6190971;23;20050;-83
2021/01/04 12:32:14;;;;;;;35.23;19.40;;;5.10;55.10;;;;;;6192489;23;20001;-83
2021/01/04 12:34:40;;;;;;;36.77;19.63;;;5.10;55.10;;;;;;6217563;23;19993;-83
2021/01/04 12:37:06;;;;;;;34.77;19.27;;;5.10;55.10;;;;;;6218512;23;20008;-83
2021/01/04 12:39:32;;;;;;;36.10;19.57;;;5.10;55.20;;;;;;6216677;23;20005;-83
2021/01/04 12:41:58;;;;;;;36.83;19.37;;;5.10;55.10;;;;;;6177022;23;20368;-83
2021/01/04 12:44:52;;;;;;;33.57;19.13;;;5.00;54.80;;;;;;6161588;23;20067;-83
2021/01/04 12:47:18;;;;;;;33.60;18.07;;;4.90;55.00;;;;;;6163299;23;20001;-82
2021/01/04 12:49:44;;;;;;;32.37;18.00;;;4.80;55.00;;;;;;6161868;23;20009;-83
2021/01/04 12:52:10;;;;;;;36.87;18.40;;;4.80;55.20;;;;;;6162749;23;20005;-83
2021/01/04 12:54:36;;;;;;;40.50;19.40;;;4.80;55.20;;;;;;6161554;23;20027;-83
2021/01/04 12:57:04;;;;;;;33.80;17.77;;;4.80;55.20;;;;;;6162646;23;20039;-83
2021/01/04 12:59:30;;;;;;;36.17;18.63;;;4.80;55.30;;;;;;6162101;23;20364;-83
2021/01/04 13:01:56;;;;;;;36.03;18.90;;;4.70;55.20;;;;;;6187443;23;20008;-83
2021/01/04 13:04:25;;;;;;;35.07;19.20;;;4.80;55.40;;;;;;6162948;23;20005;-83
2021/01/04 13:06:53;;;;;;;38.43;19.77;;;4.80;55.30;;;;;;6163242;23;20023;-83
2021/01/04 13:09:19;;;;;;;39.63;19.47;;;4.80;55.30;;;;;;6162593;23;20091;-83
2021/01/04 13:12:00;;;;;;;37.47;19.80;;;4.90;55.50;;;;;;6162987;23;20017;-83
2021/01/04 13:14:38;;;;;;;47.97;21.17;;;5.00;55.40;;;;;;6162698;23;20016;-83
2021/01/04 13:20:16;;;;;;;34.13;18.20;;;5.10;55.30;;;;;;6188578;23;20048;-83
2021/01/04 13:22:58;;;;;;;44.75;19.20;;;5.30;55.20;;;;;;6161305;23;20043;-83
2021/01/04 13:26:16;;;;;;;39.33;18.87;;;5.20;55.10;;;;;;6161926;23;20343;-83
2021/01/04 13:29:01;;;;;;;39.37;20.17;;;5.30;55.10;;;;;;6189473;23;20005;-83
2021/01/04 13:31:27;;;;;;;36.73;20.20;;;5.20;55.10;;;;;;6161996;23;20001;-83
2021/01/04 13:33:53;;;;;;;47.10;23.67;;;5.10;55.20;;;;;;6188263;23;20005;-83